Time;durP1;ratioP1;P1;durP2;ratioP2;P2;SDS_P1;SDS_P2;PMS_P1;PMS_P2;Temp;Humidity;BMP_temperature;BMP_pressure;BME280_temperature;BME280_humidity;BME280_pressure;Samples;Min_cycle;Max_cycle;Signal;HPM_P1;HPM_P2
2022/07/25 00:01:58;;;;;;;;;;;589.20;2432.00;;;;;;5113609;28;19926;-53
2022/07/25 00:04:23;;;;;;;;;;;589.10;2432.00;;;;;;5113792;28;19957;-54
2022/07/25 00:06:49;;;;;;;;;;;589.10;2432.00;;;;;;5113661;28;19907;-54
2022/07/25 00:09:15;;;;;;;;;;;589.00;2432.00;;;;;;5113420;28;19907;-56
2022/07/25 00:11:40;;;;;;;;;;;589.00;2432.00;;;;;;5113372;28;20013;-52
2022/07/25 00:14:06;;;;;;;;;;;588.80;2432.00;;;;;;5113705;28;19912;-52
2022/07/25 00:16:32;;;;;;;;;;;588.80;2432.00;;;;;;5113569;28;19908;-53
2022/07/25 00:18:57;;;;;;;;;;;564.10;2432.00;;;;;;5113263;28;19960;-54
2022/07/25 00:21:23;;;;;;;;;;;564.10;2432.00;;;;;;5113312;28;20418;-54
2022/07/25 00:23:49;;;;;;;;;;;588.80;2432.00;;;;;;5113378;28;19907;-54
2022/07/25 00:26:15;;;;;;;;;;;588.80;2432.00;;;;;;5113322;28;19916;-53
2022/07/25 00:28:41;;;;;;;;;;;588.80;2432.00;;;;;;5113468;28;20036;-54
2022/07/25 00:31:07;;;;;;;;;;;588.90;2432.00;;;;;;5113284;28;19947;-55
2022/07/25 00:33:32;;;;;;;;;;;588.80;2432.00;;;;;;5113049;28;20363;-54
2022/07/25 00:35:58;;;;;;;;;;;588.90;2432.00;;;;;;5113404;28;19908;-53
2022/07/25 00:38:24;;;;;;;;;;;588.90;2432.00;;;;;;5094984;28;20341;-54
2022/07/25 00:40:49;;;;;;;;;;;588.80;2432.00;;;;;;5112989;28;19934;-54
2022/07/25 00:43:15;;;;;;;;;;;564.10;2432.00;;;;;;5112990;28;20027;-54
2022/07/25 00:45:40;;;;;;;;;;;563.90;2432.00;;;;;;5112967;28;19976;-54
2022/07/25 00:48:07;;;;;;;;;;;563.90;2432.00;;;;;;5112925;28;19915;-53
2022/07/25 00:50:32;;;;;;;;;;;564.00;2432.00;;;;;;5112280;28;19922;-54
2022/07/25 00:52:58;;;;;;;;;;;564.00;2432.00;;;;;;5112073;28;20354;-54
2022/07/25 00:55:24;;;;;;;;;;;564.00;2432.00;;;;;;5112756;28;19916;-54
2022/07/25 00:57:49;;;;;;;;;;;564.00;2432.00;;;;;;5112760;28;19908;-54
2022/07/25 01:00:16;;;;;;;;;;;564.10;2432.00;;;;;;5112417;28;19960;-53
2022/07/25 01:02:42;;;;;;;;;;;564.10;2432.00;;;;;;5112360;28;19912;-54
2022/07/25 01:05:08;;;;;;;;;;;588.80;2432.00;;;;;;5112599;28;19990;-56
2022/07/25 01:07:34;;;;;;;;;;;588.80;2432.00;;;;;;5112349;28;20031;-54
2022/07/25 01:10:00;;;;;;;;;;;588.80;2432.00;;;;;;5112473;28;19908;-54
2022/07/25 01:12:25;;;;;;;;;;;588.80;2432.00;;;;;;5112063;28;19918;-54
2022/07/25 01:14:51;;;;;;;;;;;588.90;2432.00;;;;;;5112352;28;19963;-54
2022/07/25 01:17:17;;;;;;;;;;;588.90;2432.00;;;;;;5112482;28;19994;-54
2022/07/25 01:19:42;;;;;;;;;;;588.80;2432.00;;;;;;5112136;28;20320;-54
2022/07/25 01:22:08;;;;;;;;;;;564.00;2432.00;;;;;;5112549;28;19911;-53
2022/07/25 01:24:34;;;;;;;;;;;564.00;2432.00;;;;;;5112282;28;19919;-54
2022/07/25 01:27:00;;;;;;;;;;;564.00;2432.00;;;;;;5112321;28;20258;-54
2022/07/25 01:29:25;;;;;;;;;;;563.80;2432.00;;;;;;5111985;28;19912;-53
2022/07/25 01:31:51;;;;;;;;;;;563.90;2432.00;;;;;;5112142;28;19908;-54
2022/07/25 01:34:16;;;;;;;;;;;563.90;2432.00;;;;;;5111773;28;19953;-54
2022/07/25 01:36:42;;;;;;;;;;;563.80;2432.00;;;;;;5111810;28;20444;-54
2022/07/25 01:39:07;;;;;;;;;;;563.80;2432.00;;;;;;5111780;28;19908;-54
2022/07/25 01:41:33;;;;;;;;;;;563.60;2432.00;;;;;;5111798;28;19966;-56
2022/07/25 01:43:59;;;;;;;;;;;563.70;2432.00;;;;;;5111946;28;19990;-54
2022/07/25 01:46:24;;;;;;;;;;;563.70;2432.00;;;;;;5111555;28;19912;-54
2022/07/25 01:48:50;;;;;;;;;;;563.70;2432.00;;;;;;5111679;28;19915;-53
2022/07/25 01:51:15;;;;;;;;;;;563.70;2432.00;;;;;;5111486;28;19908;-54
2022/07/25 01:53:41;;;;;;;;;;;563.70;2432.00;;;;;;5111462;28;19908;-54
2022/07/25 01:56:07;;;;;;;;;;;563.70;2432.00;;;;;;5111821;28;19908;-54
2022/07/25 01:58:33;;;;;;;;;;;563.60;2432.00;;;;;;5111407;28;19912;-54
2022/07/25 02:00:58;;;;;;;;;;;563.60;2432.00;;;;;;5111378;28;19965;-54
2022/07/25 02:03:29;;;;;;;;;;;563.60;2432.00;;;;;;5110981;28;19916;-54
2022/07/25 02:06:03;;;;;;;;;;;563.70;2432.00;;;;;;5111133;28;19908;-54
2022/07/25 02:08:29;;;;;;;;;;;563.70;2432.00;;;;;;5111392;28;19908;-53
2022/07/25 02:10:55;;;;;;;;;;;563.60;2432.00;;;;;;5110976;28;19961;-54
2022/07/25 02:13:21;;;;;;;;;;;563.50;2432.00;;;;;;5111067;28;20342;-55
2022/07/25 02:15:46;;;;;;;;;;;563.60;2432.00;;;;;;5111332;28;19908;-53
2022/07/25 02:18:12;;;;;;;;;;;563.60;2432.00;;;;;;5111146;28;19908;-54
2022/07/25 02:20:38;;;;;;;;;;;563.50;2432.00;;;;;;5111177;28;19923;-54
2022/07/25 02:23:03;;;;;;;;;;;563.60;2432.00;;;;;;5111039;28;20427;-53
2022/07/25 02:25:29;;;;;;;;;;;563.60;2432.00;;;;;;5111217;28;19908;-53
2022/07/25 02:27:55;;;;;;;;;;;563.50;2432.00;;;;;;5111018;28;19915;-54
2022/07/25 02:30:20;;;;;;;;;;;563.40;2432.00;;;;;;5111234;28;19950;-54
2022/07/25 02:32:46;;;;;;;;;;;563.30;2432.00;;;;;;5111166;28;19907;-54
2022/07/25 02:35:12;;;;;;;;;;;563.20;2432.00;;;;;;5110859;28;20383;-54
2022/07/25 02:37:37;;;;;;;;;;;538.50;2406.40;;;;;;5111040;28;19911;-54
2022/07/25 02:40:03;;;;;;;;;;;538.50;2406.40;;;;;;5110808;28;20091;-54
2022/07/25 02:42:29;;;;;;;;;;;538.50;2406.40;;;;;;5110831;28;19947;-54
2022/07/25 02:44:54;;;;;;;;;;;563.20;2432.00;;;;;;5110919;28;20262;-53
2022/07/25 02:47:20;;;;;;;;;;;563.20;2432.00;;;;;;5110974;28;19907;-54
2022/07/25 02:49:45;;;;;;;;;;;563.20;2432.00;;;;;;5110750;28;19922;-54
2022/07/25 02:52:11;;;;;;;;;;;538.50;2406.40;;;;;;5110807;28;20369;-53
2022/07/25 02:54:36;;;;;;;;;;;538.50;2406.40;;;;;;5110865;28;19908;-54
2022/07/25 02:57:02;;;;;;;;;;;538.40;2406.40;;;;;;5110768;28;20331;-54
2022/07/25 02:59:28;;;;;;;;;;;538.30;2406.40;;;;;;5110630;28;19923;-53
2022/07/25 03:01:53;;;;;;;;;;;538.20;2406.40;;;;;;5110353;28;19924;-55
2022/07/25 03:04:19;;;;;;;;;;;538.20;2406.40;;;;;;5110690;28;19912;-54
2022/07/25 03:06:44;;;;;;;;;;;538.20;2406.40;;;;;;5110365;28;20010;-53
2022/07/25 03:09:10;;;;;;;;;;;538.40;2406.40;;;;;;5110656;28;19959;-54
2022/07/25 03:11:35;;;;;;;;;;;538.40;2406.40;;;;;;5110448;28;19912;-55
2022/07/25 03:14:02;;;;;;;;;;;538.20;2406.40;;;;;;5110639;28;19919;-54
2022/07/25 03:16:27;;;;;;;;;;;538.30;2406.40;;;;;;5114777;28;19912;-54
2022/07/25 03:18:53;;;;;;;;;;;538.40;2406.40;;;;;;5114443;28;19911;-54
2022/07/25 03:21:19;;;;;;;;;;;538.40;2406.40;;;;;;5114542;28;19916;-54
2022/07/25 03:23:44;;;;;;;;;;;538.50;2406.40;;;;;;5114399;28;19908;-53
2022/07/25 03:26:10;;;;;;;;;;;538.50;2406.40;;;;;;5114539;28;19915;-53
2022/07/25 03:28:35;;;;;;;;;;;538.50;2406.40;;;;;;5114403;28;19908;-54
2022/07/25 03:31:02;;;;;;;;;;;538.50;2406.40;;;;;;5114548;28;20011;-54
2022/07/25 03:33:27;;;;;;;;;;;563.20;2432.00;;;;;;5114593;28;19994;-54
2022/07/25 03:35:53;;;;;;;;;;;563.20;2432.00;;;;;;5114206;28;19943;-54
2022/07/25 03:38:18;;;;;;;;;;;538.50;2406.40;;;;;;5114165;28;19907;-53
2022/07/25 03:40:44;;;;;;;;;;;563.20;2432.00;;;;;;5113841;28;19924;-54
2022/07/25 03:43:09;;;;;;;;;;;563.20;2432.00;;;;;;5114300;28;19947;-54
2022/07/25 03:45:35;;;;;;;;;;;563.30;2432.00;;;;;;5113911;28;20277;-54
2022/07/25 03:48:01;;;;;;;;;;;563.20;2432.00;;;;;;5114538;28;19958;-54
2022/07/25 03:50:27;;;;;;;;;;;563.50;2432.00;;;;;;5114002;28;19908;-53
2022/07/25 03:52:52;;;;;;;;;;;563.40;2432.00;;;;;;5113982;28;19908;-54
2022/07/25 03:55:18;;;;;;;;;;;563.60;2432.00;;;;;;5113827;28;20010;-54
2022/07/25 03:57:43;;;;;;;;;;;563.50;2432.00;;;;;;5113676;28;19919;-54
2022/07/25 04:00:11;;;;;;;;;;;563.60;2432.00;;;;;;5113761;28;20277;-54
2022/07/25 04:02:37;;;;;;;;;;;563.70;2432.00;;;;;;5113743;28;19916;-53
2022/07/25 04:05:06;;;;;;;;;;;563.90;2432.00;;;;;;5113871;28;19915;-54
2022/07/25 04:07:31;;;;;;;;;;;563.80;2432.00;;;;;;5113707;28;20393;-54
2022/07/25 04:09:57;;;;;;;;;;;563.90;2432.00;;;;;;5113598;28;19912;-54
2022/07/25 04:12:23;;;;;;;;;;;563.90;2432.00;;;;;;5113385;28;19919;-54
2022/07/25 04:14:49;;;;;;;;;;;563.80;2432.00;;;;;;5113746;28;19920;-53
2022/07/25 04:17:14;;;;;;;;;;;563.80;2432.00;;;;;;5113342;28;19907;-54
2022/07/25 04:19:40;;;;;;;;;;;564.10;2432.00;;;;;;5113680;28;19912;-54
2022/07/25 04:22:05;;;;;;;;;;;588.90;2432.00;;;;;;5113385;28;19916;-54
2022/07/25 04:24:31;;;;;;;;;;;589.10;2432.00;;;;;;5113258;28;19908;-53
2022/07/25 04:26:56;;;;;;;;;;;589.20;2432.00;;;;;;5112849;28;19912;-54
2022/07/25 04:29:22;;;;;;;;;;;589.10;2432.00;;;;;;5113404;28;19953;-54
2022/07/25 04:31:48;;;;;;;;;;;589.00;2432.00;;;;;;5113284;28;19908;-53
2022/07/25 04:34:13;;;;;;;;;;;589.20;2432.00;;;;;;5113136;28;19919;-53
2022/07/25 04:36:39;;;;;;;;;;;589.40;2432.00;;;;;;5113244;28;20384;-53
2022/07/25 04:39:04;;;;;;;;;;;589.50;2432.00;;;;;;5113026;28;20438;-54
2022/07/25 04:41:30;;;;;;;;;;;589.50;2432.00;;;;;;5112853;28;20361;-53
2022/07/25 04:43:56;;;;;;;;;;;589.60;2432.00;;;;;;5113088;28;19915;-53
2022/07/25 04:46:22;;;;;;;;;;;589.70;2432.00;;;;;;5112922;28;19915;-54
2022/07/25 04:48:48;;;;;;;;;;;589.70;2432.00;;;;;;5112794;28;20277;-53
2022/07/25 04:51:14;;;;;;;;;;;614.50;2432.00;;;;;;5112740;28;19911;-54
2022/07/25 04:53:39;;;;;;;;;;;615.10;2432.00;;;;;;5112784;28;19968;-53
2022/07/25 04:56:05;;;;;;;;;;;717.30;2150.40;;;;;;5112744;28;19930;-53
2022/07/25 04:58:31;;;;;;;;;;;768.80;1817.60;;;;;;5112969;28;19912;-53
2022/07/25 05:00:57;;;;;;;;;;;819.70;1638.40;;;;;;5112410;28;19919;-54
2022/07/25 05:03:23;;;;;;;;;;;845.70;1561.60;;;;;;5112498;28;19990;-55
2022/07/25 05:05:48;;;;;;;;;;;870.90;1459.20;;;;;;5112198;28;20383;-54
2022/07/25 05:08:14;;;;;;;;;;;896.90;1382.40;;;;;;5112170;28;20334;-54
2022/07/25 05:10:39;;;;;;;;;;;922.00;1356.80;;;;;;5112122;28;19954;-54
2022/07/25 05:13:05;;;;;;;;;;;947.40;1305.60;;;;;;5112388;28;20265;-54
2022/07/25 05:15:30;;;;;;;;;;;973.00;1280.00;;;;;;5112380;28;19908;-55
2022/07/25 05:17:56;;;;;;;;;;;973.30;1254.40;;;;;;5112229;28;19908;-55
2022/07/25 05:20:22;;;;;;;;;;;973.50;1254.40;;;;;;5112119;28;19923;-56
2022/07/25 05:22:47;;;;;;;;;;;998.50;1228.80;;;;;;5112208;28;19961;-54
2022/07/25 05:25:13;;;;;;;;;;;973.70;1203.20;;;;;;5111949;28;19955;-54
2022/07/25 05:27:39;;;;;;;;;;;999.00;1177.60;;;;;;5112099;28;19908;-55
2022/07/25 05:30:05;;;;;;;;;;;999.20;1177.60;;;;;;5112229;28;19912;-55
2022/07/25 05:32:31;;;;;;;;;;;1024.00;1152.00;;;;;;5112097;28;20006;-55
2022/07/25 05:34:56;;;;;;;;;;;1024.30;1177.60;;;;;;5112046;28;19998;-55
2022/07/25 05:37:22;;;;;;;;;;;1049.90;1126.40;;;;;;5110350;28;20285;-53
2022/07/25 05:39:47;;;;;;;;;;;1075.20;1100.80;;;;;;5112994;27;19927;-52
2022/07/25 05:42:13;;;;;;;;;;;1075.50;1049.60;;;;;;5131370;27;19926;-53
2022/07/25 05:44:39;;;;;;;;;;;1075.70;1049.60;;;;;;5116359;27;20331;-52
2022/07/25 05:47:08;;;;;;;;;;;1100.90;1049.60;;;;;;5131775;27;19937;-55
2022/07/25 05:49:33;;;;;;;;;;;1101.40;1024.00;;;;;;5113058;27;20234;-55
2022/07/25 05:51:59;;;;;;;;;;;1101.50;1024.00;;;;;;5127386;27;19994;-54
2022/07/25 05:54:24;;;;;;;;;;;1126.40;1024.00;;;;;;5126585;27;19990;-53
2022/07/25 05:56:50;;;;;;;;;;;1126.80;1024.00;;;;;;5119140;27;19911;-53
2022/07/25 05:59:15;;;;;;;;;;;1126.90;1024.00;;;;;;5110042;28;20368;-55
2022/07/25 06:01:41;;;;;;;;;;;1152.40;998.40;;;;;;5108985;28;20293;-55
2022/07/25 06:04:07;;;;;;;;;;;1152.10;1024.00;;;;;;5109564;28;19907;-54
2022/07/25 06:06:32;;;;;;;;;;;1152.50;998.40;;;;;;5109129;28;19973;-56
2022/07/25 06:08:58;;;;;;;;;;;1177.60;947.20;;;;;;5109040;28;19908;-54
2022/07/25 06:11:26;;;;;;;;;;;1178.20;921.60;;;;;;5108760;28;19916;-54
2022/07/25 06:13:52;;;;;;;;;;;;;;;;;;5108686;28;19918;-56
2022/07/25 06:16:18;;;;;;;;;;;1178.50;921.60;;;;;;5109280;28;19994;-53
2022/07/25 06:18:43;;;;;;;;;;;1203.30;921.60;;;;;;5108492;28;20007;-53
2022/07/25 06:21:09;;;;;;;;;;;1203.60;921.60;;;;;;5110391;28;19920;-56
2022/07/25 06:23:34;;;;;;;;;;;1229.00;896.00;;;;;;5109724;28;19908;-54
2022/07/25 06:26:00;;;;;;;;;;;;;;;;;;5109660;28;19935;-57
2022/07/25 06:28:26;;;;;;;;;;;1229.20;896.00;;;;;;5109495;28;19912;-55
2022/07/25 06:30:51;;;;;;;;;;;1229.20;896.00;;;;;;5109612;28;20247;-56
2022/07/25 06:33:17;;;;;;;;;;;1228.80;896.00;;;;;;5109739;28;20034;-54
2022/07/25 06:35:43;;;;;;;;;;;1229.20;870.40;;;;;;5109661;28;19908;-56
2022/07/25 06:38:08;;;;;;;;;;;1254.60;870.40;;;;;;5109491;28;19908;-56
2022/07/25 06:40:34;;;;;;;;;;;1229.50;870.40;;;;;;5109516;28;19920;-55
2022/07/25 06:42:59;;;;;;;;;;;1229.70;870.40;;;;;;5109686;28;19911;-56
2022/07/25 06:45:25;;;;;;;;;;;1254.50;870.40;;;;;;5109127;28;19908;-55
2022/07/25 06:47:51;;;;;;;;;;;1254.40;870.40;;;;;;5109652;28;20352;-57
2022/07/25 06:50:17;;;;;;;;;;;1254.50;870.40;;;;;;5108462;28;19995;-56
2022/07/25 06:52:43;;;;;;;;;;;1254.80;844.80;;;;;;5109229;28;19955;-57
2022/07/25 06:55:09;;;;;;;;;;;1254.90;844.80;;;;;;5109491;28;19907;-54
2022/07/25 06:57:35;;;;;;;;;;;1280.20;793.60;;;;;;5109402;28;19961;-55
2022/07/25 07:00:05;;;;;;;;;;;1280.00;844.80;;;;;;5007581;28;2880516;-55
2022/07/25 07:02:31;;;;;;;;;;;1280.20;819.20;;;;;;5110036;28;19919;-55
2022/07/25 07:04:56;;;;;;;;;;;1254.80;844.80;;;;;;5110488;28;19911;-55
2022/07/25 07:07:22;;;;;;;;;;;1255.10;819.20;;;;;;5110172;28;20269;-55
2022/07/25 07:09:48;;;;;;;;;;;1280.40;793.60;;;;;;5109981;28;19907;-54
2022/07/25 07:12:13;;;;;;;;;;;1280.90;793.60;;;;;;5109784;28;19998;-54
2022/07/25 07:14:40;;;;;;;;;;;1305.60;793.60;;;;;;5110127;28;19923;-56
2022/07/25 07:17:05;;;;;;;;;;;1306.00;768.00;;;;;;5110398;28;19908;-56
2022/07/25 07:19:31;;;;;;;;;;;1305.90;768.00;;;;;;5109813;28;20297;-53
2022/07/25 07:21:56;;;;;;;;;;;1331.60;742.40;;;;;;5109973;28;20683;-55
2022/07/25 07:24:22;;;;;;;;;;;1331.70;742.40;;;;;;5109382;28;20269;-54
2022/07/25 07:26:48;;;;;;;;;;;1331.70;742.40;;;;;;5109865;28;19912;-54
2022/07/25 07:29:13;;;;;;;;;;;1331.70;716.80;;;;;;5109608;28;20334;-53
2022/07/25 07:31:39;;;;;;;;;;;1280.40;742.40;;;;;;5109650;28;19915;-55
2022/07/25 07:34:05;;;;;;;;;;;1280.00;716.80;;;;;;5109547;28;19908;-54
2022/07/25 07:36:31;;;;;;;;;;;1254.80;742.40;;;;;;5109827;28;19933;-54
2022/07/25 07:38:56;;;;;;;;;;;1229.40;716.80;;;;;;5108752;28;19907;-54
2022/07/25 07:41:22;;;;;;;;;;;1254.40;716.80;;;;;;5109220;28;19988;-56
2022/07/25 07:43:47;;;;;;;;;;;1254.90;742.40;;;;;;5106803;28;19957;-55
2022/07/25 07:46:13;;;;;;;;;;;1255.00;691.20;;;;;;5109262;28;19915;-56
2022/07/25 07:48:38;;;;;;;;;;;1305.90;665.60;;;;;;5109467;28;20006;-55
2022/07/25 07:51:04;;;;;;;;;;;1306.20;665.60;;;;;;5109251;28;19911;-55
2022/07/25 07:56:15;;;;;;;;;;;1306.30;665.60;;;;;;5107898;28;19961;-55
2022/07/25 07:58:40;;;;;;;;;;;1280.20;716.80;;;;;;5109405;28;19915;-55
2022/07/25 08:01:06;;;;;;;;;;;1305.70;691.20;;;;;;5110524;28;19919;-55
2022/07/25 08:03:32;;;;;;;;;;;1306.20;665.60;;;;;;5112794;28;20413;-57
2022/07/25 08:05:57;;;;;;;;;;;1331.70;691.20;;;;;;5113196;28;19957;-56
2022/07/25 08:08:23;;;;;;;;;;;1357.70;665.60;;;;;;5112802;28;20266;-56
2022/07/25 08:10:49;;;;;;;;;;;1332.10;665.60;;;;;;5112706;28;19956;-56
2022/07/25 08:13:16;;;;;;;;;;;1331.60;665.60;;;;;;5112776;28;19919;-56
2022/07/25 08:15:43;;;;;;;;;;;1356.90;665.60;;;;;;5112515;28;19908;-54
2022/07/25 08:18:09;;;;;;;;;;;1306.20;665.60;;;;;;5110403;28;19912;-54
2022/07/25 08:20:35;;;;;;;;;;;1331.20;665.60;;;;;;5112727;28;20277;-54
2022/07/25 08:23:01;;;;;;;;;;;1306.20;665.60;;;;;;5112771;28;19912;-53
2022/07/25 08:25:26;;;;;;;;;;;1306.00;640.00;;;;;;5112602;28;20387;-54
2022/07/25 08:27:52;;;;;;;;;;;1255.00;665.60;;;;;;5112307;28;19916;-55
2022/07/25 08:30:18;;;;;;;;;;;1203.40;716.80;;;;;;5113032;28;20297;-56
2022/07/25 08:32:55;;;;;;;;;;;1152.00;742.40;;;;;;5113376;28;19908;-55
2022/07/25 08:35:21;;;;;;;;;;;1101.20;793.60;;;;;;5113410;28;20274;-55
2022/07/25 08:37:47;;;;;;;;;;;1075.20;793.60;;;;;;5113385;28;19915;-55
2022/07/25 08:40:14;;;;;;;;;;;1024.60;819.20;;;;;;5112645;28;19912;-57
2022/07/25 08:42:40;;;;;;;;;;;1024.00;870.40;;;;;;5113093;28;19915;-55
2022/07/25 08:45:06;;;;;;;;;;;998.80;896.00;;;;;;5112918;28;20315;-55
2022/07/25 08:47:33;;;;;;;;;;;973.70;896.00;;;;;;5113278;28;19931;-55
2022/07/25 08:50:01;;;;;;;;;;;948.10;896.00;;;;;;5112960;28;19958;-55
2022/07/25 08:52:27;;;;;;;;;;;947.70;896.00;;;;;;5112964;28;19915;-55
2022/07/25 08:54:53;;;;;;;;;;;948.10;896.00;;;;;;5112768;28;19908;-55
2022/07/25 08:57:18;;;;;;;;;;;948.10;896.00;;;;;;5112917;28;19995;-55
2022/07/25 08:59:44;;;;;;;;;;;972.80;921.60;;;;;;5112525;28;19920;-55
2022/07/25 09:02:13;;;;;;;;;;;948.10;921.60;;;;;;5112649;28;19927;-55
2022/07/25 09:04:39;;;;;;;;;;;947.80;921.60;;;;;;5112851;28;19907;-56
2022/07/25 09:07:05;;;;;;;;;;;947.80;921.60;;;;;;5112465;28;19908;-54
2022/07/25 09:09:31;;;;;;;;;;;947.30;947.20;;;;;;5112486;28;20380;-56
2022/07/25 09:11:57;;;;;;;;;;;947.50;921.60;;;;;;5111659;28;20551;-54
2022/07/25 09:14:23;;;;;;;;;;;947.20;947.20;;;;;;5112139;28;19981;-54
2022/07/25 09:16:49;;;;;;;;;;;947.30;947.20;;;;;;5112465;28;19958;-54
2022/07/25 09:19:14;;;;;;;;;;;947.20;921.60;;;;;;5112379;28;19911;-55
2022/07/25 09:21:41;;;;;;;;;;;922.50;921.60;;;;;;5112366;28;20424;-55
2022/07/25 09:24:07;;;;;;;;;;;947.20;972.80;;;;;;5112505;28;19907;-56
2022/07/25 09:26:42;;;;;;;;;;;947.20;947.20;;;;;;5112186;28;19907;-55
2022/07/25 09:29:14;;;;;;;;;;;922.00;972.80;;;;;;5112161;28;20482;-56
2022/07/25 09:31:41;;;;;;;;;;;922.20;947.20;;;;;;5111989;28;19909;-55
2022/07/25 09:34:08;;;;;;;;;;;921.70;972.80;;;;;;5112051;28;19907;-55
2022/07/25 09:36:34;;;;;;;;;;;922.00;998.40;;;;;;5112013;28;19925;-55
2022/07/25 09:39:01;;;;;;;;;;;922.10;998.40;;;;;;5111953;28;19933;-55
2022/07/25 09:41:53;;;;;;;;;;;922.00;972.80;;;;;;5111514;28;20023;-54
2022/07/25 09:44:21;;;;;;;;;;;921.90;972.80;;;;;;5106840;28;19912;-55
2022/07/25 09:46:47;;;;;;;;;;;921.80;972.80;;;;;;5093614;28;19908;-54
2022/07/25 09:49:13;;;;;;;;;;;921.90;972.80;;;;;;5111771;28;19960;-55
2022/07/25 09:51:39;;;;;;;;;;;921.80;998.40;;;;;;5112007;28;20361;-55
2022/07/25 09:54:05;;;;;;;;;;;921.80;1024.00;;;;;;5111680;28;19911;-54
2022/07/25 09:56:31;;;;;;;;;;;921.60;972.80;;;;;;5111382;28;19907;-54
2022/07/25 09:58:57;;;;;;;;;;;896.90;947.20;;;;;;5111775;28;20013;-54
2022/07/25 10:01:26;;;;;;;;;;;921.70;947.20;;;;;;5111418;28;19965;-55
2022/07/25 10:03:57;;;;;;;;;;;921.80;972.80;;;;;;5111536;28;19994;-54
2022/07/25 10:06:41;;;;;;;;;;;922.00;947.20;;;;;;5111452;28;19908;-56
2022/07/25 10:09:10;;;;;;;;;;;921.80;972.80;;;;;;5111401;28;20368;-54
2022/07/25 10:11:36;;;;;;;;;;;896.20;947.20;;;;;;5111120;28;19911;-55
2022/07/25 10:14:08;;;;;;;;;;;896.10;972.80;;;;;;5111611;28;20656;-54
2022/07/25 10:16:43;;;;;;;;;;;896.20;998.40;;;;;;5111360;28;19912;-55
2022/07/25 10:19:09;;;;;;;;;;;896.00;972.80;;;;;;5111417;28;19907;-56
2022/07/25 10:21:34;;;;;;;;;;;896.20;947.20;;;;;;5110186;28;20366;-54
2022/07/25 10:24:07;;;;;;;;;;;896.40;947.20;;;;;;5109077;28;19926;-56
2022/07/25 10:26:38;;;;;;;;;;;896.50;947.20;;;;;;5109379;28;19915;-55
2022/07/25 10:29:10;;;;;;;;;;;896.50;921.60;;;;;;5109178;28;20127;-54
2022/07/25 10:31:38;;;;;;;;;;;896.90;972.80;;;;;;5108640;28;19919;-54
2022/07/25 10:34:07;;;;;;;;;;;896.90;947.20;;;;;;5108742;28;19916;-54
2022/07/25 10:36:59;;;;;;;;;;;896.70;947.20;;;;;;5108479;28;19908;-55
2022/07/25 10:39:35;;;;;;;;;;;896.60;947.20;;;;;;5069910;28;19912;-54
2022/07/25 10:42:03;;;;;;;;;;;896.20;947.20;;;;;;5109270;28;20030;-55
2022/07/25 10:44:40;;;;;;;;;;;871.30;947.20;;;;;;5109195;28;19919;-53
2022/07/25 10:47:07;;;;;;;;;;;871.10;972.80;;;;;;5109199;28;19908;-55
2022/07/25 10:49:38;;;;;;;;;;;871.30;1024.00;;;;;;5108741;28;19908;-54
2022/07/25 10:52:04;;;;;;;;;;;896.20;972.80;;;;;;5109238;28;19957;-54
2022/07/25 10:54:36;;;;;;;;;;;896.20;972.80;;;;;;5109214;28;19911;-55
2022/07/25 10:57:03;;;;;;;;;;;870.70;972.80;;;;;;5090661;28;20298;-55
2022/07/25 10:59:36;;;;;;;;;;;870.80;972.80;;;;;;5108993;28;19908;-54
2022/07/25 11:02:02;;;;;;;;;;;871.10;972.80;;;;;;5108809;28;20358;-53
2022/07/25 11:04:28;;;;;;;;;;;871.20;947.20;;;;;;5109313;28;19919;-54
2022/07/25 11:06:54;;;;;;;;;;;871.30;947.20;;;;;;5109196;28;20413;-55
2022/07/25 11:09:24;;;;;;;;;;;871.30;947.20;;;;;;5109605;28;20368;-54
2022/07/25 11:11:52;;;;;;;;;;;870.70;947.20;;;;;;5108908;28;19965;-55
2022/07/25 11:14:18;;;;;;;;;;;870.80;972.80;;;;;;5108650;28;20632;-55
2022/07/25 11:16:45;;;;;;;;;;;871.10;972.80;;;;;;5109047;28;19916;-55
2022/07/25 11:19:17;;;;;;;;;;;871.20;972.80;;;;;;5109026;28;19912;-54
2022/07/25 11:21:44;;;;;;;;;;;871.10;972.80;;;;;;5108741;28;19927;-56
2022/07/25 11:24:09;;;;;;;;;;;871.30;972.80;;;;;;5109093;28;19911;-53
2022/07/25 11:26:43;;;;;;;;;;;871.30;921.60;;;;;;5108772;28;19914;-55
2022/07/25 11:29:16;;;;;;;;;;;871.30;921.60;;;;;;5108518;28;19908;-54
2022/07/25 11:31:42;;;;;;;;;;;871.30;947.20;;;;;;5108773;28;19912;-56
2022/07/25 11:34:07;;;;;;;;;;;896.20;1024.00;;;;;;5108267;28;19927;-53
2022/07/25 11:36:34;;;;;;;;;;;896.20;947.20;;;;;;5110745;27;20010;-54
2022/07/25 11:39:00;;;;;;;;;;;896.20;947.20;;;;;;5116455;28;19908;-59
2022/07/25 11:41:29;;;;;;;;;;;896.00;921.60;;;;;;5116961;28;19927;-53
2022/07/25 11:43:55;;;;;;;;;;;871.30;947.20;;;;;;5116996;28;20317;-53
2022/07/25 11:46:21;;;;;;;;;;;871.20;972.80;;;;;;5117037;28;19908;-53
2022/07/25 11:48:46;;;;;;;;;;;871.20;947.20;;;;;;5116840;28;19908;-53
2022/07/25 11:51:12;;;;;;;;;;;871.20;921.60;;;;;;5116704;28;19908;-53
2022/07/25 11:53:39;;;;;;;;;;;871.30;947.20;;;;;;5116618;28;19908;-53
2022/07/25 11:56:33;;;;;;;;;;;870.90;896.00;;;;;;5116929;28;19911;-54
2022/07/25 11:58:59;;;;;;;;;;;871.00;947.20;;;;;;5014361;28;19935;-53
2022/07/25 12:01:32;;;;;;;;;;;870.50;947.20;;;;;;5013884;28;19963;-54
2022/07/25 12:04:06;;;;;;;;;;;870.70;947.20;;;;;;5014095;28;19984;-52
2022/07/25 12:06:32;;;;;;;;;;;870.90;972.80;;;;;;5013898;28;19913;-54
2022/07/25 12:09:08;;;;;;;;;;;871.10;998.40;;;;;;4998547;28;20450;-54
2022/07/25 12:11:34;;;;;;;;;;;871.20;998.40;;;;;;5019145;28;19918;-53
2022/07/25 12:14:03;;;;;;;;;;;871.30;947.20;;;;;;5021608;28;19921;-55
2022/07/25 12:16:29;;;;;;;;;;;896.00;998.40;;;;;;5017273;28;20019;-55
2022/07/25 12:18:55;;;;;;;;;;;896.20;972.80;;;;;;5011318;28;20012;-55
2022/07/25 12:21:20;;;;;;;;;;;896.20;972.80;;;;;;5008331;28;20371;-56
2022/07/25 12:23:46;;;;;;;;;;;896.20;972.80;;;;;;5008626;28;19964;-57
2022/07/25 12:26:13;;;;;;;;;;;896.00;947.20;;;;;;5008726;28;19913;-55
2022/07/25 12:28:39;;;;;;;;;;;871.30;947.20;;;;;;5009245;28;20037;-55
2022/07/25 12:31:04;;;;;;;;;;;871.20;972.80;;;;;;5008867;28;20008;-55
2022/07/25 12:33:31;;;;;;;;;;;871.30;998.40;;;;;;5008727;28;19909;-56
2022/07/25 12:35:57;;;;;;;;;;;896.00;921.60;;;;;;5084294;28;20357;-56
2022/07/25 12:38:23;;;;;;;;;;;896.00;947.20;;;;;;5111359;28;19918;-57
2022/07/25 12:40:49;;;;;;;;;;;896.10;921.60;;;;;;5111410;28;19920;-56
2022/07/25 12:43:14;;;;;;;;;;;896.10;972.80;;;;;;5111427;28;19977;-56
2022/07/25 12:45:41;;;;;;;;;;;896.10;972.80;;;;;;5111243;28;20256;-54
2022/07/25 12:48:07;;;;;;;;;;;896.20;947.20;;;;;;5111360;28;19916;-56
2022/07/25 12:50:32;;;;;;;;;;;896.20;972.80;;;;;;5111164;28;20383;-56
2022/07/25 12:52:58;;;;;;;;;;;896.30;947.20;;;;;;5111448;28;19919;-57
2022/07/25 12:55:24;;;;;;;;;;;896.30;921.60;;;;;;5110971;28;19924;-56
2022/07/25 12:57:49;;;;;;;;;;;896.20;921.60;;;;;;5111159;28;19914;-55
2022/07/25 13:00:17;;;;;;;;;;;896.20;921.60;;;;;;5110511;28;19912;-56
2022/07/25 13:02:42;;;;;;;;;;;896.20;921.60;;;;;;5111105;28;19908;-57
2022/07/25 13:05:09;;;;;;;;;;;871.10;921.60;;;;;;5111174;28;19918;-56
2022/07/25 13:07:35;;;;;;;;;;;871.10;947.20;;;;;;5110790;28;19911;-56
2022/07/25 13:10:00;;;;;;;;;;;871.30;921.60;;;;;;5111183;28;19953;-56
2022/07/25 13:12:26;;;;;;;;;;;871.30;947.20;;;;;;5110121;28;20430;-55
2022/07/25 13:14:52;;;;;;;;;;;871.30;921.60;;;;;;5110698;28;19911;-56
2022/07/25 13:17:17;;;;;;;;;;;871.30;972.80;;;;;;5110790;28;19912;-55
2022/07/25 13:19:43;;;;;;;;;;;896.00;947.20;;;;;;5110571;28;19908;-56
2022/07/25 13:22:08;;;;;;;;;;;896.10;947.20;;;;;;5110778;28;19911;-56
2022/07/25 13:24:34;;;;;;;;;;;871.10;896.00;;;;;;5110586;28;20268;-56
2022/07/25 13:27:03;;;;;;;;;;;871.00;921.60;;;;;;5110362;28;19914;-55
2022/07/25 13:29:28;;;;;;;;;;;871.30;947.20;;;;;;5110822;28;19908;-55
2022/07/25 13:31:54;;;;;;;;;;;896.00;972.80;;;;;;5110365;28;19991;-55
2022/07/25 13:34:20;;;;;;;;;;;871.30;921.60;;;;;;5110468;28;19907;-55
2022/07/25 13:36:46;;;;;;;;;;;871.10;921.60;;;;;;5112444;28;19915;-55
2022/07/25 13:39:12;;;;;;;;;;;870.90;947.20;;;;;;5111753;28;20391;-55
2022/07/25 13:41:38;;;;;;;;;;;871.00;921.60;;;;;;5111684;28;19920;-56
2022/07/25 13:44:03;;;;;;;;;;;870.90;921.60;;;;;;5112017;28;19912;-61